createdAt,value
2023-01-11T00:00:47.546Z,56.80
2023-01-11T00:03:14.995Z,56.70
2023-01-11T00:05:43.547Z,56.90
2023-01-11T00:08:11.306Z,56.90
2023-01-11T00:10:39.912Z,55.90
2023-01-11T00:13:07.446Z,57.00
2023-01-11T00:15:35.229Z,56.90
2023-01-11T00:18:01.987Z,56.80
2023-01-11T00:20:28.804Z,56.80
2023-01-11T00:22:55.485Z,56.80
2023-01-11T00:25:22.160Z,56.70
2023-01-11T00:27:50.264Z,56.70
2023-01-11T00:30:17.856Z,56.70
2023-01-11T00:32:44.743Z,56.70
2023-01-11T00:35:11.732Z,55.90
2023-01-11T00:37:39.492Z,56.70
2023-01-11T00:40:07.707Z,56.80
2023-01-11T00:42:34.399Z,56.90
2023-01-11T00:45:02.396Z,56.90
2023-01-11T00:47:29.109Z,56.90
2023-01-11T00:49:55.746Z,57.00
2023-01-11T00:52:22.424Z,57.10
2023-01-11T00:54:49.532Z,57.10
2023-01-11T00:57:16.271Z,57.30
2023-01-11T00:59:42.962Z,57.10
2023-01-11T01:02:12.377Z,57.20
2023-01-11T01:04:40.077Z,57.10
2023-01-11T01:07:07.401Z,57.10
2023-01-11T01:09:34.066Z,57.20
2023-01-11T01:12:01.117Z,57.10
2023-01-11T01:14:28.533Z,57.20
2023-01-11T01:16:57.133Z,57.20
2023-01-11T01:19:26.088Z,57.20
2023-01-11T01:21:53.081Z,57.10
2023-01-11T01:24:19.778Z,57.20
2023-01-11T01:26:46.513Z,57.10
2023-01-11T01:29:13.185Z,57.00
2023-01-11T01:31:40.003Z,57.00
2023-01-11T01:34:06.780Z,57.30
2023-01-11T01:36:35.176Z,57.40
2023-01-11T01:39:02.144Z,57.40
2023-01-11T01:41:28.981Z,57.40
2023-01-11T01:43:57.034Z,57.30
2023-01-11T01:46:27.977Z,57.50
2023-01-11T01:49:00.282Z,57.50
2023-01-11T01:51:30.874Z,57.40
2023-01-11T01:54:03.848Z,57.30
2023-01-11T01:56:34.333Z,57.40
2023-01-11T01:59:05.300Z,57.30
2023-01-11T02:01:32.010Z,57.50
2023-01-11T02:03:58.981Z,57.50
2023-01-11T02:06:25.794Z,57.40
2023-01-11T02:09:02.086Z,57.40
2023-01-11T02:11:28.962Z,57.30
2023-01-11T02:13:57.046Z,57.40
2023-01-11T02:16:23.772Z,57.40
2023-01-11T02:18:50.791Z,57.50
2023-01-11T02:21:25.307Z,57.40
2023-01-11T02:24:18.778Z,56.70
2023-01-11T02:27:20.340Z,56.50
2023-01-11T02:30:08.956Z,56.60
2023-01-11T02:32:45.712Z,57.50
2023-01-11T02:35:19.860Z,56.80
2023-01-11T02:37:55.391Z,56.70
2023-01-11T02:40:27.532Z,56.70
2023-01-11T02:42:57.562Z,57.30
2023-01-11T02:45:37.561Z,56.70
2023-01-11T02:48:14.393Z,56.60
2023-01-11T02:50:46.353Z,56.60
2023-01-11T02:53:18.450Z,56.70
2023-01-11T02:55:48.410Z,56.70
2023-01-11T02:58:17.950Z,56.60
2023-01-11T03:00:47.229Z,56.70
2023-01-11T03:03:16.105Z,56.70
2023-01-11T03:05:47.459Z,56.60
2023-01-11T03:08:26.843Z,56.60
2023-01-11T03:11:03.024Z,56.80
2023-01-11T03:13:40.811Z,56.60
2023-01-11T03:16:24.948Z,56.70
2023-01-11T03:19:06.912Z,56.70
2023-01-11T03:21:47.722Z,56.60
2023-01-11T03:24:23.744Z,56.70
2023-01-11T03:27:02.433Z,56.70
2023-01-11T03:29:32.468Z,56.80
2023-01-11T03:32:13.685Z,56.80
2023-01-11T03:34:48.553Z,56.90
2023-01-11T03:37:20.531Z,57.10
2023-01-11T03:39:53.349Z,57.20
2023-01-11T03:42:23.445Z,57.00
2023-01-11T03:44:55.573Z,57.00
2023-01-11T03:47:26.629Z,56.90
2023-01-11T03:49:57.222Z,56.90
2023-01-11T03:52:29.308Z,56.90
2023-01-11T03:54:58.545Z,57.00
2023-01-11T03:57:30.983Z,57.10
2023-01-11T03:59:57.819Z,56.80
2023-01-11T04:02:27.766Z,57.00
2023-01-11T04:04:54.858Z,57.00
2023-01-11T04:07:21.573Z,56.90
2023-01-11T04:09:48.353Z,57.00
2023-01-11T04:12:15.052Z,56.90
2023-01-11T04:14:41.821Z,56.90
2023-01-11T04:17:08.656Z,56.70
2023-01-11T04:19:36.921Z,56.90
2023-01-11T04:22:03.662Z,56.90
2023-01-11T04:24:30.425Z,57.10
2023-01-11T04:26:57.185Z,57.10
2023-01-11T04:29:23.871Z,57.00
2023-01-11T04:31:50.610Z,57.00
2023-01-11T04:34:17.379Z,56.90
2023-01-11T04:36:45.429Z,56.90
2023-01-11T04:39:12.273Z,57.00
2023-01-11T04:41:39.677Z,57.10
2023-01-11T04:44:06.448Z,57.10
2023-01-11T04:46:33.188Z,57.10
2023-01-11T04:49:00.139Z,57.00
2023-01-11T04:51:26.839Z,57.20
2023-01-11T04:53:54.980Z,57.10
2023-01-11T04:56:21.716Z,57.20
2023-01-11T04:58:48.473Z,57.10
2023-01-11T05:01:17.450Z,57.20
2023-01-11T05:03:45.087Z,57.20
2023-01-11T05:06:12.399Z,57.20
2023-01-11T05:08:39.873Z,57.10
2023-01-11T05:11:08.371Z,57.20
2023-01-11T05:13:35.099Z,57.20
2023-01-11T05:16:01.836Z,57.30
2023-01-11T05:18:28.579Z,57.20
2023-01-11T05:20:55.325Z,57.20
2023-01-11T05:23:21.977Z,57.20
2023-01-11T05:25:48.711Z,57.10
2023-01-11T05:28:16.730Z,57.10
2023-01-11T05:30:43.420Z,57.00
2023-01-11T05:33:10.187Z,57.00
2023-01-11T05:35:37.308Z,57.00
2023-01-11T05:38:04.092Z,57.00
2023-01-11T05:40:30.783Z,57.00
2023-01-11T05:42:57.576Z,57.10
2023-01-11T05:45:25.618Z,57.00
2023-01-11T05:47:53.233Z,56.90
2023-01-11T05:50:20.074Z,57.00
2023-01-11T05:52:46.786Z,56.90
2023-01-11T05:55:13.757Z,56.90
2023-01-11T05:57:41.478Z,56.90
2023-01-11T06:00:09.281Z,56.90
2023-01-11T06:02:37.697Z,56.70
2023-01-11T06:05:05.300Z,56.80
2023-01-11T06:07:32.047Z,56.60
2023-01-11T06:09:58.755Z,56.70
2023-01-11T06:12:25.418Z,56.70
2023-01-11T06:14:52.096Z,57.00
2023-01-11T06:17:18.800Z,56.80
2023-01-11T06:19:46.845Z,56.90
2023-01-11T06:22:13.506Z,56.90
2023-01-11T06:24:40.189Z,56.90
2023-01-11T06:27:06.987Z,56.90
2023-01-11T06:29:33.717Z,56.90
2023-01-11T06:32:00.453Z,56.80
2023-01-11T06:34:27.160Z,56.80
2023-01-11T06:36:55.201Z,56.80
2023-01-11T06:39:21.971Z,57.00
2023-01-11T06:41:48.756Z,57.10
2023-01-11T06:44:15.425Z,57.10
2023-01-11T06:46:42.189Z,57.10
2023-01-11T06:49:08.875Z,56.80
2023-01-11T06:51:35.552Z,57.00
2023-01-11T06:54:03.756Z,56.90
2023-01-11T06:56:30.403Z,56.80
2023-01-11T06:58:57.140Z,56.70
2023-01-11T07:01:24.186Z,56.80
2023-01-11T07:03:50.904Z,56.90
2023-01-11T07:06:17.666Z,56.90
2023-01-11T07:08:44.399Z,57.00
2023-01-11T07:11:12.739Z,56.90
2023-01-11T07:13:39.494Z,57.00
2023-01-11T07:16:06.648Z,57.00
2023-01-11T07:18:33.466Z,57.00
2023-01-11T07:21:00.139Z,57.00
2023-01-11T07:23:26.749Z,57.00
2023-01-11T07:25:53.452Z,57.10
2023-01-11T07:28:21.436Z,57.10
2023-01-11T07:30:58.231Z,56.90
2023-01-11T07:33:26.656Z,57.00
2023-01-11T07:35:53.381Z,57.10
2023-01-11T07:38:20.151Z,57.10
2023-01-11T07:40:46.906Z,57.20
2023-01-11T07:43:14.335Z,57.20
2023-01-11T07:45:46.489Z,57.30
2023-01-11T07:48:14.802Z,57.20
2023-01-11T07:50:44.505Z,58.00
2023-01-11T07:53:12.747Z,57.20
2023-01-11T07:55:39.735Z,57.20
2023-01-11T07:58:06.745Z,57.30
2023-01-11T08:00:33.415Z,57.20
2023-01-11T08:03:02.053Z,57.30
2023-01-11T08:05:29.357Z,57.20
2023-01-11T08:07:56.087Z,57.40
2023-01-11T08:10:23.000Z,57.30
2023-01-11T08:12:51.630Z,57.30
2023-01-11T08:15:18.380Z,57.40
2023-01-11T08:17:45.049Z,57.20
2023-01-11T08:20:13.138Z,57.50
2023-01-11T08:22:39.811Z,58.00
2023-01-11T08:25:07.235Z,57.80
2023-01-11T08:27:33.913Z,58.20
2023-01-11T08:30:00.605Z,58.20
2023-01-11T08:32:28.189Z,58.00
2023-01-11T08:34:54.914Z,58.10
2023-01-11T08:37:23.040Z,58.20
2023-01-11T08:39:49.739Z,58.40
2023-01-11T08:42:16.467Z,58.30
2023-01-11T08:44:43.197Z,58.20
2023-01-11T08:47:09.886Z,58.70
2023-01-11T08:49:36.525Z,58.60
2023-01-11T08:52:03.582Z,58.50
2023-01-11T08:54:31.575Z,58.20
2023-01-11T08:56:58.273Z,58.50
2023-01-11T08:59:24.943Z,58.60
2023-01-11T09:01:51.631Z,58.90
2023-01-11T09:04:25.111Z,58.70
2023-01-11T09:06:52.204Z,58.60
2023-01-11T09:09:18.977Z,58.80
2023-01-11T09:11:47.104Z,58.60
2023-01-11T09:14:13.743Z,58.80
2023-01-11T09:16:40.410Z,58.80
2023-01-11T09:19:07.037Z,58.90
2023-01-11T09:21:33.747Z,59.10
2023-01-11T09:24:00.501Z,58.80
2023-01-11T09:26:27.143Z,59.00
2023-01-11T09:28:55.463Z,59.20
2023-01-11T09:31:22.264Z,59.40
2023-01-11T09:33:48.956Z,59.50
2023-01-11T09:36:15.598Z,59.10
2023-01-11T09:38:42.315Z,58.90
2023-01-11T09:41:25.879Z,59.30
2023-01-11T09:44:00.126Z,59.60
2023-01-11T09:46:28.425Z,59.50
2023-01-11T09:48:57.438Z,59.30
2023-01-11T09:51:28.193Z,59.60
2023-01-11T09:53:55.391Z,59.40
2023-01-11T09:56:28.710Z,59.20
2023-01-11T09:59:03.336Z,59.30
2023-01-11T10:01:34.588Z,59.50
2023-01-11T10:04:16.565Z,59.30
2023-01-11T10:06:57.160Z,59.00
2023-01-11T10:18:41.726Z,59.40
2023-01-11T10:18:46.407Z,59.20
2023-01-11T10:21:17.751Z,59.20
2023-01-11T10:23:50.122Z,59.20
2023-01-11T10:26:24.091Z,59.80
2023-01-11T10:28:55.172Z,60.10
2023-01-11T10:31:23.539Z,59.70
2023-01-11T10:33:52.033Z,60.40
2023-01-11T10:36:23.299Z,60.00
2023-01-11T10:38:53.929Z,59.70
2023-01-11T10:41:23.995Z,59.40
2023-01-11T10:44:01.420Z,59.10
2023-01-11T10:46:31.976Z,59.10
2023-01-11T10:49:23.319Z,59.30
2023-01-11T10:51:50.467Z,59.50
2023-01-11T10:54:20.326Z,59.60
2023-01-11T10:57:03.539Z,59.80
2023-01-11T11:00:10.214Z,60.00
2023-01-11T11:02:54.450Z,60.20
2023-01-11T11:05:32.382Z,59.80
2023-01-11T11:08:05.266Z,60.20
2023-01-11T11:10:37.457Z,59.90
2023-01-11T11:13:12.034Z,60.20
2023-01-11T11:15:45.345Z,59.90
2023-01-11T11:18:13.461Z,59.70
2023-01-11T11:20:40.257Z,60.50
2023-01-11T11:23:06.913Z,60.40
2023-01-11T11:25:36.381Z,60.30
2023-01-11T11:28:05.506Z,60.80
2023-01-11T11:30:34.634Z,60.60
2023-01-11T11:33:03.219Z,60.30
2023-01-11T11:35:39.286Z,60.40
2023-01-11T11:38:06.523Z,60.60
2023-01-11T11:40:35.204Z,60.40
2023-01-11T11:43:19.324Z,60.30
2023-01-11T11:45:56.961Z,60.40
2023-01-11T11:48:24.528Z,61.10
2023-01-11T11:50:54.263Z,61.00
2023-01-11T11:53:31.884Z,60.50
2023-01-11T11:55:59.311Z,61.00
2023-01-11T11:58:27.099Z,61.40
2023-01-11T12:00:53.818Z,61.00
2023-01-11T12:03:23.420Z,60.80
2023-01-11T12:05:57.410Z,61.20
2023-01-11T12:08:25.001Z,61.90
2023-01-11T12:10:54.782Z,61.70
2023-01-11T12:13:30.796Z,61.90
2023-01-11T12:15:58.958Z,61.70
2023-01-11T12:18:28.205Z,61.70
2023-01-11T12:20:56.337Z,61.00
2023-01-11T12:23:24.549Z,61.40
2023-01-11T12:26:10.947Z,62.10
2023-01-11T12:29:06.683Z,62.10
2023-01-11T12:31:46.709Z,61.40
2023-01-11T12:34:29.152Z,61.10
2023-01-11T12:37:11.228Z,62.50
2023-01-11T12:39:43.100Z,61.60
2023-01-11T12:42:29.203Z,62.20
2023-01-11T12:45:07.947Z,62.10
2023-01-11T12:47:53.473Z,61.20
2023-01-11T12:50:23.149Z,61.50
2023-01-11T12:53:05.275Z,61.30
2023-01-11T12:55:41.616Z,61.60
2023-01-11T12:58:14.713Z,61.70
2023-01-11T13:01:06.752Z,61.50
2023-01-11T13:03:47.961Z,62.20
2023-01-11T13:06:19.463Z,61.70
2023-01-11T13:08:58.391Z,61.90
2023-01-11T13:11:40.959Z,61.90
2023-01-11T13:14:32.268Z,61.90
2023-01-11T13:17:06.457Z,61.80
2023-01-11T13:19:40.877Z,62.20
2023-01-11T13:22:14.091Z,62.10
2023-01-11T13:24:46.087Z,62.30
2023-01-11T13:27:16.543Z,62.20
2023-01-11T13:29:46.607Z,62.10
2023-01-11T13:32:18.207Z,61.90
2023-01-11T13:34:49.645Z,61.80
2023-01-11T13:37:22.812Z,61.90
2023-01-11T13:39:57.659Z,62.20
2023-01-11T13:42:28.539Z,61.50
2023-01-11T13:45:00.632Z,61.80
2023-01-11T13:47:34.307Z,61.50
2023-01-11T13:50:04.871Z,62.20
2023-01-11T13:52:48.394Z,61.80
2023-01-11T13:55:26.264Z,62.00
2023-01-11T13:57:58.182Z,61.70
2023-01-11T14:00:30.717Z,61.70
2023-01-11T14:03:03.498Z,61.50
2023-01-11T14:05:37.021Z,61.40
2023-01-11T14:08:20.747Z,61.60
2023-01-11T14:11:01.602Z,61.50
2023-01-11T14:13:50.586Z,61.60
2023-01-11T14:16:27.723Z,61.50
2023-01-11T14:19:01.556Z,61.90
2023-01-11T14:21:34.351Z,61.70
2023-01-11T14:24:03.916Z,61.70
2023-01-11T14:27:08.169Z,61.40
2023-01-11T14:30:03.360Z,61.20
2023-01-11T14:32:55.428Z,61.60
2023-01-11T14:35:55.232Z,61.50
2023-01-11T14:38:47.088Z,61.20
2023-01-11T14:41:55.766Z,61.30
2023-01-11T14:44:55.397Z,61.20
2023-01-11T14:47:51.999Z,61.50
2023-01-11T14:50:32.528Z,61.50
2023-01-11T14:53:01.764Z,61.50
2023-01-11T14:55:31.786Z,61.50
2023-01-11T14:58:15.897Z,61.20
2023-01-11T15:01:11.301Z,61.10
2023-01-11T15:03:56.152Z,61.00
2023-01-11T15:06:23.379Z,61.10
2023-01-11T15:08:52.775Z,61.40
2023-01-11T15:11:40.728Z,61.20
2023-01-11T15:14:24.470Z,61.20
2023-01-11T15:16:56.582Z,61.30
2023-01-11T15:19:27.821Z,61.20
2023-01-11T15:21:55.813Z,61.50
2023-01-11T15:24:26.864Z,61.30
2023-01-11T15:26:54.810Z,60.80
2023-01-11T15:29:24.129Z,61.50
2023-01-11T15:32:06.494Z,61.20
2023-01-11T15:34:44.547Z,61.60
2023-01-11T15:37:35.386Z,61.50
2023-01-11T15:40:09.379Z,61.50
2023-01-11T15:43:01.107Z,61.50
2023-01-11T15:45:59.616Z,61.30
2023-01-11T15:48:39.558Z,61.20
2023-01-11T15:51:24.012Z,61.60
2023-01-11T15:54:14.382Z,61.30
2023-01-11T15:56:58.020Z,61.20
2023-01-11T16:00:03.906Z,61.40
2023-01-11T16:03:04.776Z,61.30
2023-01-11T16:05:37.118Z,62.10
2023-01-11T16:08:16.765Z,61.60
2023-01-11T16:10:51.092Z,61.30
2023-01-11T16:13:41.204Z,61.00
2023-01-11T16:16:20.610Z,60.90
2023-01-11T16:18:50.856Z,61.40
2023-01-11T16:21:26.232Z,61.10
2023-01-11T16:23:55.178Z,61.10
2023-01-11T16:26:22.226Z,60.70
2023-01-11T16:28:50.681Z,61.30
2023-01-11T16:31:17.477Z,61.30
2023-01-11T16:33:44.321Z,61.20
2023-01-11T16:36:13.871Z,60.90
2023-01-11T16:39:01.888Z,61.10
2023-01-11T16:41:34.539Z,61.20
2023-01-11T16:44:04.328Z,61.20
2023-01-11T16:47:05.901Z,61.20
2023-01-11T16:49:32.866Z,60.70
2023-01-11T16:52:00.069Z,60.70
2023-01-11T16:54:32.047Z,60.80
2023-01-11T16:57:00.755Z,60.90
2023-01-11T16:59:29.103Z,61.10
2023-01-11T17:01:57.401Z,60.80
2023-01-11T17:04:28.173Z,60.70
2023-01-11T17:06:54.880Z,60.60
2023-01-11T17:09:22.293Z,60.40
2023-01-11T17:11:52.010Z,60.50
2023-01-11T17:14:58.440Z,60.30
2023-01-11T17:17:25.745Z,59.90
2023-01-11T17:19:52.852Z,60.30
2023-01-11T17:22:22.355Z,60.20
2023-01-11T17:24:52.752Z,60.00
2023-01-11T17:27:23.261Z,59.80
2023-01-11T17:29:53.222Z,59.80
2023-01-11T17:32:23.011Z,59.60
2023-01-11T17:34:50.675Z,59.60
2023-01-11T17:37:19.151Z,59.40
2023-01-11T17:39:48.814Z,59.40
2023-01-11T17:42:16.751Z,59.40
2023-01-11T17:44:45.591Z,59.20
2023-01-11T17:47:12.930Z,59.30
2023-01-11T17:49:39.995Z,59.20
2023-01-11T17:52:20.170Z,59.20
2023-01-11T17:54:47.039Z,59.10
2023-01-11T17:57:13.934Z,59.10
2023-01-11T17:59:40.737Z,59.00
2023-01-11T18:02:13.303Z,58.90
2023-01-11T18:04:40.228Z,59.00
2023-01-11T18:07:13.153Z,58.70
2023-01-11T18:09:45.681Z,58.70
2023-01-11T18:12:15.537Z,58.80
2023-01-11T18:14:49.031Z,58.60
2023-01-11T18:17:33.877Z,58.30
2023-01-11T18:20:02.379Z,58.10
2023-01-11T18:22:30.185Z,58.30
2023-01-11T18:24:58.033Z,58.40
2023-01-11T18:27:30.686Z,58.20
2023-01-11T18:29:59.763Z,58.10
2023-01-11T18:32:32.238Z,58.20
2023-01-11T18:34:59.149Z,58.20
2023-01-11T18:37:26.026Z,58.10
2023-01-11T18:39:53.005Z,58.10
2023-01-11T18:42:24.442Z,58.00
2023-01-11T18:44:51.164Z,58.10
2023-01-11T18:47:20.439Z,58.20
2023-01-11T18:49:49.282Z,58.10
2023-01-11T18:52:16.692Z,58.10
2023-01-11T18:54:43.631Z,58.10
2023-01-11T18:57:10.791Z,58.20
2023-01-11T18:59:38.168Z,58.20
2023-01-11T19:02:17.736Z,58.20
2023-01-11T19:04:45.407Z,58.10
2023-01-11T19:07:14.282Z,58.20
2023-01-11T19:09:41.453Z,58.10
2023-01-11T19:12:08.321Z,58.10
2023-01-11T19:14:35.274Z,58.10
2023-01-11T19:17:02.312Z,58.20
2023-01-11T19:19:29.267Z,58.00
2023-01-11T19:21:55.923Z,58.00
2023-01-11T19:24:24.030Z,58.00
2023-01-11T19:26:50.807Z,58.10
2023-01-11T19:29:18.392Z,57.90
2023-01-11T19:31:46.088Z,57.90
2023-01-11T19:34:12.992Z,57.80
2023-01-11T19:36:40.470Z,57.90
2023-01-11T19:39:07.881Z,57.70
2023-01-11T19:41:36.350Z,57.70
2023-01-11T19:44:03.225Z,57.70
2023-01-11T19:46:32.047Z,57.60
2023-01-11T19:48:58.946Z,57.50
2023-01-11T19:51:25.619Z,57.40
2023-01-11T19:53:52.347Z,57.30
2023-01-11T19:56:19.175Z,57.30
2023-01-11T19:58:47.330Z,57.20
2023-01-11T20:01:14.173Z,57.20
2023-01-11T20:03:41.015Z,57.20
2023-01-11T20:06:08.475Z,57.20
2023-01-11T20:08:35.742Z,57.20
2023-01-11T20:11:05.283Z,56.90
2023-01-11T20:13:32.038Z,57.00
2023-01-11T20:16:05.271Z,56.80
2023-01-11T20:18:32.133Z,56.80
2023-01-11T20:20:58.958Z,57.00
2023-01-11T20:23:26.107Z,56.90
2023-01-11T20:25:58.203Z,56.90
2023-01-11T20:28:24.979Z,56.70
2023-01-11T20:30:51.844Z,56.90
2023-01-11T20:33:20.495Z,56.70
2023-01-11T20:35:47.190Z,56.70
2023-01-11T20:38:13.822Z,56.70
2023-01-11T20:40:40.595Z,56.60
2023-01-11T20:43:07.442Z,56.50
2023-01-11T20:45:34.130Z,56.50
2023-01-11T20:48:00.838Z,56.40
2023-01-11T20:50:28.827Z,56.50
2023-01-11T20:52:55.535Z,56.60
2023-01-11T20:55:22.216Z,56.60
2023-01-11T20:57:48.926Z,56.60
2023-01-11T21:00:16.450Z,56.50
2023-01-11T21:02:43.305Z,56.20
2023-01-11T21:05:10.254Z,56.50
2023-01-11T21:07:38.360Z,56.60
2023-01-11T21:10:06.302Z,56.50
2023-01-11T21:12:32.985Z,56.30
2023-01-11T21:14:59.673Z,56.20
2023-01-11T21:17:26.441Z,56.30
2023-01-11T21:19:53.160Z,56.10
2023-01-11T21:22:19.883Z,56.30
2023-01-11T21:24:47.979Z,56.20
2023-01-11T21:27:14.777Z,56.00
2023-01-11T21:29:41.540Z,56.00
2023-01-11T21:32:08.328Z,56.00
2023-01-11T21:34:35.009Z,56.20
2023-01-11T21:37:01.800Z,56.30
2023-01-11T21:39:28.571Z,56.20
2023-01-11T21:41:56.675Z,56.20
2023-01-11T21:44:27.333Z,56.40
2023-01-11T21:46:54.134Z,56.20
2023-01-11T21:49:20.869Z,56.60
2023-01-11T21:51:47.623Z,56.50
2023-01-11T21:54:15.666Z,56.60
2023-01-11T21:56:42.478Z,56.30
2023-01-11T21:59:11.047Z,56.40
2023-01-11T22:01:38.963Z,56.30
2023-01-11T22:04:06.526Z,56.50
2023-01-11T22:06:35.362Z,56.30
2023-01-11T22:09:02.246Z,56.30
2023-01-11T22:11:28.999Z,56.30
2023-01-11T22:13:55.669Z,56.40
2023-01-11T22:16:23.910Z,56.40
2023-01-11T22:18:50.738Z,56.30
2023-01-11T22:21:19.339Z,56.30
2023-01-11T22:23:46.994Z,56.40
2023-01-11T22:26:15.365Z,56.50
2023-01-11T22:28:42.497Z,56.40
2023-01-11T22:31:09.403Z,56.40
2023-01-11T22:33:37.993Z,56.50
2023-01-11T22:36:07.534Z,56.60
2023-01-11T22:38:34.240Z,56.60
2023-01-11T22:41:01.044Z,56.60
2023-01-11T22:43:28.985Z,56.60
2023-01-11T22:45:56.944Z,56.60
2023-01-11T22:48:23.807Z,56.60
2023-01-11T22:50:52.142Z,56.80
2023-01-11T22:53:19.340Z,56.70
2023-01-11T22:55:46.043Z,56.60
2023-01-11T22:58:12.727Z,56.70
2023-01-11T23:00:39.522Z,56.70
2023-01-11T23:03:06.526Z,56.80
2023-01-11T23:05:33.220Z,56.70
2023-01-11T23:08:01.295Z,56.70
2023-01-11T23:10:28.073Z,56.70
2023-01-11T23:12:54.780Z,56.70
2023-01-11T23:15:21.489Z,56.70
2023-01-11T23:17:48.176Z,56.80
2023-01-11T23:20:15.056Z,56.80
2023-01-11T23:22:41.839Z,56.70
2023-01-11T23:25:10.669Z,56.70
2023-01-11T23:27:37.558Z,56.80
2023-01-11T23:30:05.405Z,56.70
2023-01-11T23:32:33.088Z,56.80
2023-01-11T23:34:59.892Z,56.80
2023-01-11T23:37:26.564Z,56.90
2023-01-11T23:39:53.287Z,56.90
2023-01-11T23:42:21.333Z,56.90
2023-01-11T23:44:48.059Z,56.90
2023-01-11T23:47:14.879Z,56.90
2023-01-11T23:49:42.010Z,56.80
2023-01-11T23:52:08.816Z,56.80
2023-01-11T23:54:35.534Z,56.80
2023-01-11T23:57:03.234Z,56.90
2023-01-11T23:59:31.633Z,56.90
